createdAt,value
2023-01-18T00:02:06.520Z,8.50
2023-01-18T00:07:11.759Z,8.23
2023-01-18T00:12:21.243Z,6.77
2023-01-18T00:17:24.614Z,6.27
2023-01-18T00:22:30.639Z,6.40
2023-01-18T00:27:33.942Z,8.43
2023-01-18T00:32:38.438Z,9.13
2023-01-18T00:37:53.395Z,9.00
2023-01-18T00:43:14.414Z,11.17
2023-01-18T00:48:17.833Z,10.07
2023-01-18T00:53:22.543Z,10.40
2023-01-18T00:58:30.597Z,10.43
2023-01-18T01:03:54.439Z,9.00
2023-01-18T01:08:59.007Z,8.13
2023-01-18T01:14:20.011Z,10.13
2023-01-18T01:19:40.985Z,9.27
2023-01-18T01:25:03.021Z,8.07
2023-01-18T01:30:07.501Z,8.87
2023-01-18T01:35:12.898Z,9.50
2023-01-18T01:40:18.203Z,8.83
2023-01-18T01:45:23.787Z,8.90
2023-01-18T01:50:35.191Z,9.17
2023-01-18T01:55:41.307Z,7.60
2023-01-18T02:00:45.344Z,7.77
2023-01-18T02:05:53.658Z,7.77
2023-01-18T02:10:58.918Z,6.83
2023-01-18T02:16:09.932Z,7.47
2023-01-18T02:21:18.404Z,8.17
2023-01-18T02:26:57.201Z,7.63
2023-01-18T02:32:12.315Z,8.90
2023-01-18T02:37:25.589Z,9.47
2023-01-18T02:42:49.114Z,8.20
2023-01-18T02:47:56.019Z,9.03
2023-01-18T02:52:59.600Z,10.23
2023-01-18T02:58:10.046Z,10.53
2023-01-18T03:03:22.639Z,9.30
2023-01-18T03:08:33.631Z,10.80
2023-01-18T03:13:50.108Z,8.27
2023-01-18T03:19:53.995Z,9.33
2023-01-18T03:25:18.739Z,9.43
2023-01-18T03:30:41.568Z,9.40
2023-01-18T03:35:57.063Z,10.03
2023-01-18T03:41:02.915Z,10.63
2023-01-18T03:46:22.493Z,9.30
2023-01-18T03:51:34.791Z,11.10
2023-01-18T03:56:47.456Z,9.43
2023-01-18T04:01:53.707Z,10.10
2023-01-18T04:07:23.770Z,10.97
2023-01-18T04:12:38.290Z,10.80
2023-01-18T04:17:55.964Z,10.90
2023-01-18T04:23:06.306Z,10.83
2023-01-18T04:28:11.045Z,8.77
2023-01-18T04:33:24.271Z,9.50
2023-01-18T04:38:28.356Z,11.27
2023-01-18T04:43:39.305Z,10.73
2023-01-18T04:48:43.030Z,10.23
2023-01-18T04:53:54.728Z,7.93
2023-01-18T04:59:08.585Z,9.07
2023-01-18T05:04:11.891Z,8.97
2023-01-18T05:09:24.377Z,7.53
2023-01-18T05:14:39.716Z,8.80
2023-01-18T05:19:49.614Z,8.10
2023-01-18T05:24:53.775Z,7.10
2023-01-18T05:29:58.676Z,8.73
2023-01-18T05:35:16.159Z,7.53
2023-01-18T05:40:25.557Z,7.90
2023-01-18T05:45:30.470Z,8.30
2023-01-18T05:50:40.940Z,7.60
2023-01-18T05:55:44.696Z,7.90
2023-01-18T06:00:51.662Z,8.97
2023-01-18T06:05:58.482Z,7.47
2023-01-18T06:11:02.094Z,7.03
2023-01-18T06:16:12.112Z,5.97
2023-01-18T06:21:36.862Z,5.70
2023-01-18T06:26:41.341Z,4.70
2023-01-18T06:31:47.461Z,4.57
2023-01-18T06:36:50.785Z,3.97
2023-01-18T06:41:55.009Z,3.53
2023-01-18T06:46:59.621Z,3.57
2023-01-18T06:52:03.142Z,3.27
2023-01-18T06:57:06.483Z,3.83
2023-01-18T07:02:15.356Z,3.88
2023-01-18T07:07:18.588Z,3.50
2023-01-18T07:12:22.221Z,3.03
2023-01-18T07:17:26.925Z,3.53
2023-01-18T07:22:30.151Z,3.27
2023-01-18T07:27:33.373Z,3.43
2023-01-18T07:32:38.816Z,3.90
2023-01-18T07:37:42.044Z,3.77
2023-01-18T07:42:45.802Z,3.80
2023-01-18T07:47:52.143Z,4.00
2023-01-18T07:52:56.440Z,4.37
2023-01-18T07:58:00.196Z,3.27
2023-01-18T08:03:05.394Z,3.13
2023-01-18T08:08:11.357Z,3.60
2023-01-18T08:13:14.698Z,4.13
2023-01-18T08:18:19.556Z,3.40
2023-01-18T08:23:22.941Z,3.80
2023-01-18T08:28:26.270Z,3.53
2023-01-18T08:33:31.883Z,3.30
2023-01-18T08:38:35.278Z,2.97
2023-01-18T08:43:38.760Z,2.80
2023-01-18T08:49:06.810Z,3.00
2023-01-18T08:54:10.219Z,3.33
2023-01-18T08:59:13.565Z,3.33
2023-01-18T09:04:18.239Z,2.90
2023-01-18T09:09:21.478Z,3.20
2023-01-18T09:14:24.831Z,3.33
2023-01-18T09:19:29.427Z,3.30
2023-01-18T09:24:32.698Z,3.07
2023-01-18T09:29:36.044Z,2.93
2023-01-18T09:34:41.041Z,2.80
2023-01-18T09:39:51.751Z,2.37
2023-01-18T09:44:59.512Z,2.63
2023-01-18T09:50:10.986Z,3.17
2023-01-18T09:55:23.551Z,2.70
2023-01-18T10:00:30.304Z,2.30
2023-01-18T10:05:38.696Z,2.37
2023-01-18T10:10:50.045Z,2.00
2023-01-18T10:15:53.465Z,2.03
2023-01-18T10:21:02.590Z,1.77
2023-01-18T10:26:10.819Z,1.50
2023-01-18T10:31:24.422Z,1.73
2023-01-18T10:36:33.168Z,1.70
2023-01-18T10:41:40.751Z,1.87
2023-01-18T10:46:44.519Z,1.80
2023-01-18T10:51:49.773Z,1.40
2023-01-18T10:57:03.337Z,2.13
2023-01-18T11:02:07.327Z,2.20
2023-01-18T11:07:12.284Z,2.10
2023-01-18T11:12:37.416Z,2.30
2023-01-18T11:17:41.855Z,2.13
2023-01-18T11:22:55.022Z,1.80
2023-01-18T11:28:03.353Z,2.43
2023-01-18T11:33:06.892Z,2.23
2023-01-18T11:38:20.777Z,2.83
2023-01-18T11:43:49.736Z,2.33
2023-01-18T11:49:31.570Z,3.00
2023-01-18T11:55:08.502Z,2.07
2023-01-18T12:00:18.122Z,2.97
2023-01-18T12:05:33.961Z,2.20
2023-01-18T12:10:52.172Z,2.73
2023-01-18T12:16:05.718Z,2.43
2023-01-18T12:21:13.414Z,2.13
2023-01-18T12:26:36.552Z,1.90
2023-01-18T12:31:57.500Z,2.20
2023-01-18T12:37:25.547Z,2.20
2023-01-18T12:42:43.555Z,2.30
2023-01-18T12:47:55.490Z,2.20
2023-01-18T12:53:01.729Z,2.03
2023-01-18T12:58:07.506Z,2.10
2023-01-18T13:03:14.110Z,1.70
2023-01-18T13:08:29.224Z,2.60
2023-01-18T13:13:35.012Z,2.10
2023-01-18T13:18:45.873Z,2.20
2023-01-18T13:24:00.153Z,2.40
2023-01-18T13:29:28.487Z,2.33
2023-01-18T13:34:44.951Z,2.50
2023-01-18T13:39:52.615Z,2.30
2023-01-18T13:45:20.479Z,2.13
2023-01-18T13:50:47.389Z,2.23
2023-01-18T13:56:33.268Z,2.13
2023-01-18T14:01:39.441Z,2.67
2023-01-18T14:06:46.516Z,2.03
2023-01-18T14:11:55.153Z,2.10
2023-01-18T14:17:15.273Z,1.93
2023-01-18T14:28:05.732Z,1.90
2023-01-18T14:33:17.831Z,1.70
2023-01-18T14:38:21.812Z,2.03
2023-01-18T14:43:29.883Z,2.20
2023-01-18T14:48:39.654Z,1.60
2023-01-18T14:53:52.945Z,1.90
2023-01-18T14:58:58.562Z,1.87
2023-01-18T15:04:05.236Z,1.70
2023-01-18T15:09:12.768Z,1.83
2023-01-18T15:14:19.053Z,1.73
2023-01-18T15:19:29.406Z,1.80
2023-01-18T15:24:42.673Z,1.50
2023-01-18T15:29:49.338Z,2.13
2023-01-18T15:34:56.068Z,1.90
2023-01-18T15:40:00.834Z,1.80
2023-01-18T15:45:19.722Z,1.90
2023-01-18T15:50:32.259Z,3.07
2023-01-18T15:55:40.047Z,2.70
2023-01-18T16:00:45.432Z,2.40
2023-01-18T16:06:05.285Z,2.40
2023-01-18T16:11:27.569Z,2.67
2023-01-18T16:16:39.984Z,1.97
2023-01-18T16:21:55.404Z,1.60
2023-01-18T16:27:24.194Z,3.30
2023-01-18T16:32:33.624Z,2.30
2023-01-18T16:37:41.453Z,2.27
2023-01-18T16:43:05.053Z,2.10
2023-01-18T16:48:16.799Z,2.17
2023-01-18T16:53:21.719Z,2.20
2023-01-18T16:58:26.175Z,2.30
2023-01-18T17:03:29.876Z,3.10
2023-01-18T17:08:34.953Z,2.53
2023-01-18T17:13:38.344Z,2.60
2023-01-18T17:18:41.616Z,2.47
2023-01-18T17:23:46.566Z,3.23
2023-01-18T17:28:50.858Z,2.50
2023-01-18T17:34:06.810Z,3.00
2023-01-18T17:39:14.836Z,2.93
2023-01-18T17:44:24.263Z,2.80
2023-01-18T17:55:27.467Z,3.00
2023-01-18T18:00:34.257Z,3.37
2023-01-18T18:05:43.976Z,3.20
2023-01-18T18:10:50.702Z,2.73
2023-01-18T18:15:55.106Z,2.90
2023-01-18T18:21:02.582Z,2.90
2023-01-18T18:26:08.558Z,2.87
2023-01-18T18:31:16.173Z,2.97
2023-01-18T18:36:22.937Z,2.87
2023-01-18T18:41:29.874Z,3.07
2023-01-18T18:46:33.597Z,3.30
2023-01-18T18:51:37.061Z,3.53
2023-01-18T18:56:49.834Z,2.87
2023-01-18T19:01:53.270Z,3.30
2023-01-18T19:06:56.787Z,2.80
2023-01-18T19:12:08.227Z,4.03
2023-01-18T19:17:31.658Z,3.20
2023-01-18T19:22:40.155Z,3.40
2023-01-18T19:27:45.459Z,3.43
2023-01-18T19:33:10.351Z,3.90
2023-01-18T19:38:17.108Z,3.13
2023-01-18T19:43:21.798Z,3.93
2023-01-18T19:48:27.945Z,3.37
2023-01-18T19:53:35.241Z,4.20
2023-01-18T19:58:41.869Z,4.87
2023-01-18T20:03:54.326Z,4.83
2023-01-18T20:08:57.700Z,5.10
2023-01-18T20:14:04.999Z,6.20
2023-01-18T20:19:15.272Z,5.43
2023-01-18T20:24:21.740Z,6.03
2023-01-18T20:29:29.717Z,6.30
2023-01-18T20:34:33.861Z,5.77
2023-01-18T20:39:37.525Z,5.70
2023-01-18T20:44:43.232Z,6.13
2023-01-18T20:49:53.374Z,5.70
2023-01-18T20:55:01.081Z,5.97
2023-01-18T21:00:12.585Z,6.27
2023-01-18T21:05:22.399Z,5.83
2023-01-18T21:10:39.585Z,6.37
2023-01-18T21:15:46.748Z,6.03
2023-01-18T21:20:53.630Z,6.13
2023-01-18T21:26:01.999Z,6.17
2023-01-18T21:31:07.623Z,6.70
2023-01-18T21:36:14.413Z,6.93
2023-01-18T21:41:36.028Z,7.23
2023-01-18T21:46:45.996Z,7.10
2023-01-18T21:52:07.955Z,7.50
2023-01-18T21:57:11.322Z,6.90
2023-01-18T22:02:16.087Z,6.97
2023-01-18T22:07:19.645Z,7.43
2023-01-18T22:12:25.126Z,7.50
2023-01-18T22:17:36.945Z,7.93
2023-01-18T22:22:44.846Z,7.23
2023-01-18T22:27:48.307Z,7.50
2023-01-18T22:32:53.991Z,7.27
2023-01-18T22:37:58.698Z,7.27
2023-01-18T22:43:02.188Z,7.13
2023-01-18T22:48:08.255Z,7.23
2023-01-18T22:53:11.575Z,6.40
2023-01-18T22:58:15.488Z,6.97
2023-01-18T23:03:20.140Z,6.77
2023-01-18T23:08:42.439Z,6.53
2023-01-18T23:14:06.011Z,6.60
2023-01-18T23:19:11.155Z,7.10
2023-01-18T23:24:14.809Z,6.77
2023-01-18T23:29:18.385Z,6.67
2023-01-18T23:34:23.325Z,6.97
2023-01-18T23:39:44.280Z,6.17
2023-01-18T23:45:04.987Z,6.03
2023-01-18T23:50:28.995Z,6.50
2023-01-18T23:55:32.342Z,6.50
